AirNav   Duncan Aviation - Near you to keep you flying
 
 962 users online  

27IS Gelfius International Airport
Dahlgren, Illinois, USA

GOING TO DAHLGREN?


FAA INFORMATION EFFECTIVE 01 DECEMBER 2022

Location

FAA Identifier: 27IS
Lat/Long: 38-08-56.1740N 088-40-13.2050W
38-08.936233N 088-40.220083W
38.1489372,-88.6703347
(estimated)
Elevation: 530 ft. / 162 m (estimated)
Variation: 01E (1985)
From city: 3 miles SE of DAHLGREN, IL
Time zone: UTC -6 (UTC -5 during Daylight Saving Time)
Zip code: 62828

Airport Operations

Airport use: Private use. Permission required prior to landing
Activation date: 02/1987
Control tower: no
ARTCC: KANSAS CITY CENTER
FSS: COLUMBIA FLIGHT SERVICE STATION
Attendance: UNATNDD
Segmented circle: no

Airport Communications

WX AWOS-3PT at MVN (14 nm NW): 118.2 (618-242-7933)
WX AWOS-3 at FWC (18 nm NE): 119.425 (618-847-4709)

Nearby radio navigation aids

VOR radial/distance  VOR name  Freq  Var
ENLr121/28.2CENTRALIA VORTAC115.0004E

 
NDB name  Hdg/Dist  Freq  Var  ID
WAYNE COUNTY223/18.525701WFWC ..-. .-- -.-.

Airport Services

Runway Information

Runway 13/31

Dimensions: 1800 x 70 ft. / 549 x 21 m
Surface: turf
RUNWAY 13  RUNWAY 31
Traffic pattern: leftleft
Obstructions: 4 ft. fence15 ft. road

Airport Ownership and Management from official FAA records

Ownership: Privately-owned
Owner: GLENN E. GELFIUS
16551 CO RD 200 E
DAHLGREN, IL 62828
Phone 618-214-5337
Manager: GLENN E GELFIUS
16551 CO RD 200 E
DAHLGREN, IL 62828
Phone 618-214-5337

Additional Remarks

FOR CD CTC KANSAS CITY ARTCC AT 913-254-8508.

Instrument Procedures

There are no published instrument procedures at 27IS.

Some nearby airports with instrument procedures:

KMVN - Mount Vernon Airport (14 nm NW)
H96 - Benton Municipal Airport (15 nm SW)
KFWC - Fairfield Municipal Airport (18 nm NE)
KHSB - Harrisburg-Raleigh Airport (21 nm S)
KCUL - Carmi Municipal Airport (26 nm E)
 
Loc | Ops | Rwys | IFR | FBO | Links
Com | Nav | Svcs | Stats | Notes
Area around 27IS (Gelfius International Airport)
 
Road maps at: MapQuest Bing Google
 
Aerial photo
No photo
 
Sectional chart

 
Airport distance calculator
Flying to Gelfius International Airport? Find the distance to fly.

From to 27IS

Sunrise and sunset
Times for 04-Dec-2022
 Local
(UTC-6)
 Zulu
(UTC)
Morning civil twilight06:2712:27
Sunrise06:5612:56
Sunset16:3422:34
Evening civil twilight17:0323:03

Current date and time
Zulu (UTC)  05-Dec-2022 01:31:43
Local (UTC-6)  04-Dec-2022 19:31:43
 
METAR
KMVN 
14nm NW 
050056Z AUTO 00000KT 10SM CLR M03/M06 A3018 RMK AO2 SLP230 T10331056 FZRANO
KHSB 
21nm S 
050100Z AUTO 00000KT 10SM CLR M02/M03 A3020 RMK AO2
KCUL 
26nm E 
050115Z AUTO 00000KT 10SM CLR M01/M03 A3019 RMK AO2
TAF
KMVN 
14nm NW 
041720Z 0418/0518 VRB02KT P6SM BKN250 FM051600 16007KT P6SM BKN025
NOTAMs
Click for the latest NOTAMs
NOTAMs are issued by the DoD/FAA and will open in a separate window not controlled by AirNav.

 

 
 

Would you like to see your business listed on this page?

 If your business provides an interesting product or service to pilots, flight crews, aircraft, or users of the Gelfius International Airport, you should consider listing it here.  To start the listing process, click on the button below
 
Add a business
 

Other Pages about Gelfius International Airport

Update a link
 
Copyright © AirNav, LLC. All rights reserved. Privacy Policy  Contact